createdAt,value
2022-10-19T00:00:33.671Z,10.02
2022-10-19T00:01:33.678Z,10.04
2022-10-19T00:02:33.723Z,10.03
2022-10-19T00:03:33.687Z,10.06
2022-10-19T00:04:33.693Z,10.07
2022-10-19T00:05:33.704Z,10.09
2022-10-19T00:06:33.720Z,10.10
2022-10-19T00:07:33.900Z,10.10
2022-10-19T00:08:33.719Z,10.11
2022-10-19T00:09:33.728Z,10.11
2022-10-19T00:10:33.738Z,10.11
2022-10-19T00:11:33.746Z,10.14
2022-10-19T00:12:33.753Z,10.15
2022-10-19T00:13:33.760Z,10.16
2022-10-19T00:14:33.767Z,10.20
2022-10-19T00:15:33.777Z,10.20
2022-10-19T00:16:33.787Z,10.20
2022-10-19T00:17:34.042Z,10.20
2022-10-19T00:18:33.802Z,10.22
2022-10-19T00:19:33.814Z,10.23
2022-10-19T00:20:33.820Z,10.27
2022-10-19T00:21:33.827Z,10.25
2022-10-19T00:22:34.028Z,10.27
2022-10-19T00:23:33.847Z,10.24
2022-10-19T00:24:33.855Z,10.28
2022-10-19T00:25:33.860Z,10.28
2022-10-19T00:26:33.868Z,10.28
2022-10-19T00:27:33.879Z,10.31
2022-10-19T00:28:33.960Z,10.32
2022-10-19T00:29:33.895Z,10.33
2022-10-19T00:30:33.894Z,10.34
2022-10-19T00:31:33.903Z,10.35
2022-10-19T00:32:34.187Z,10.34
2022-10-19T00:33:33.925Z,10.34
2022-10-19T00:34:33.929Z,10.35
2022-10-19T00:35:33.936Z,10.34
2022-10-19T00:36:33.948Z,10.36
2022-10-19T00:37:33.953Z,10.36
2022-10-19T00:38:33.962Z,10.36
2022-10-19T00:39:33.973Z,10.39
2022-10-19T00:40:33.980Z,10.43
2022-10-19T00:58:34.482Z,10.43
2022-10-19T00:59:34.145Z,10.44
2022-10-19T01:00:34.156Z,10.47
2022-10-19T01:01:34.249Z,10.47
2022-10-19T01:02:34.499Z,10.50
2022-10-19T01:03:34.176Z,10.53
2022-10-19T01:04:34.183Z,10.53
2022-10-19T01:05:34.192Z,10.51
2022-10-19T01:06:34.198Z,10.51
2022-10-19T01:07:34.475Z,10.49
2022-10-19T01:08:34.214Z,10.49
2022-10-19T01:09:34.229Z,10.50
2022-10-19T01:10:34.230Z,10.49
2022-10-19T01:11:34.239Z,10.47
2022-10-19T01:12:34.249Z,10.46
2022-10-19T01:13:34.258Z,10.46
2022-10-19T01:14:34.267Z,10.47
2022-10-19T01:15:34.270Z,10.46
2022-10-19T01:16:34.278Z,10.46
2022-10-19T01:17:34.558Z,10.44
2022-10-19T01:18:34.294Z,10.46
2022-10-19T01:19:34.304Z,10.46
2022-10-19T01:20:34.309Z,10.46
2022-10-19T01:21:34.313Z,10.48
2022-10-19T01:22:34.323Z,10.48
2022-10-19T01:23:34.332Z,10.48
2022-10-19T01:24:35.788Z,10.49
2022-10-19T01:25:34.351Z,10.51
2022-10-19T01:26:34.350Z,10.54
2022-10-19T01:44:34.681Z,10.50
2022-10-19T01:45:34.511Z,10.49
2022-10-19T01:46:34.518Z,10.48
2022-10-19T01:47:34.862Z,10.47
2022-10-19T01:48:34.562Z,10.46
2022-10-19T01:49:34.545Z,10.45
2022-10-19T01:50:34.554Z,10.45
2022-10-19T01:51:34.565Z,10.46
2022-10-19T01:52:34.696Z,10.47
2022-10-19T01:53:34.587Z,10.48
2022-10-19T01:54:34.597Z,10.47
2022-10-19T01:55:34.605Z,10.45
2022-10-19T01:56:34.616Z,10.42
2022-10-19T01:57:34.624Z,10.43
2022-10-19T01:58:34.636Z,10.43
2022-10-19T01:59:34.646Z,10.40
2022-10-19T02:00:34.654Z,10.36
2022-10-19T02:01:34.661Z,10.34
2022-10-19T02:02:34.934Z,10.34
2022-10-19T02:03:34.678Z,10.35
2022-10-19T02:04:34.687Z,10.32
2022-10-19T02:05:34.695Z,10.36
2022-10-19T02:06:34.709Z,10.35
2022-10-19T02:07:34.719Z,10.35
2022-10-19T02:08:34.729Z,10.33
2022-10-19T02:09:34.736Z,10.32
2022-10-19T02:10:34.741Z,10.32
2022-10-19T02:11:34.751Z,10.30
2022-10-19T02:12:34.995Z,10.29
2022-10-19T02:13:34.773Z,10.27
2022-10-19T02:14:34.782Z,10.28
2022-10-19T02:15:34.790Z,10.27
2022-10-19T02:16:34.794Z,10.29
2022-10-19T02:17:34.803Z,10.29
2022-10-19T02:18:34.814Z,10.29
2022-10-19T02:19:34.822Z,10.29
2022-10-19T02:20:34.828Z,10.29
2022-10-19T02:21:34.835Z,10.30
2022-10-19T02:22:35.087Z,10.32
2022-10-19T02:23:34.854Z,10.34
2022-10-19T02:24:34.867Z,10.35
2022-10-19T02:25:34.876Z,10.37
2022-10-19T02:26:34.884Z,10.35
2022-10-19T02:27:34.896Z,10.35
2022-10-19T02:28:34.900Z,10.35
2022-10-19T02:29:34.910Z,10.35
2022-10-19T02:30:34.921Z,10.34
2022-10-19T02:31:34.931Z,10.33
2022-10-19T02:32:35.191Z,10.33
2022-10-19T02:33:34.953Z,10.34
2022-10-19T02:34:34.962Z,10.35
2022-10-19T02:35:34.980Z,10.33
2022-10-19T02:36:34.975Z,10.32
2022-10-19T02:38:34.990Z,10.33
2022-10-19T02:39:35.020Z,10.34
2022-10-19T02:40:35.006Z,10.34
2022-10-19T02:41:35.012Z,10.33
2022-10-19T02:42:35.337Z,10.33
2022-10-19T02:43:35.028Z,10.35
2022-10-19T02:44:35.038Z,10.35
2022-10-19T02:45:35.047Z,10.36
2022-10-19T02:46:35.087Z,10.37
2022-10-19T02:47:35.208Z,10.39
2022-10-19T02:48:35.075Z,10.41
2022-10-19T02:49:35.083Z,10.41
2022-10-19T02:50:35.093Z,10.42
2022-10-19T02:51:35.099Z,10.42
2022-10-19T02:52:35.110Z,10.44
2022-10-19T02:53:35.118Z,10.41
2022-10-19T02:54:35.125Z,10.39
2022-10-19T02:55:35.186Z,10.39
2022-10-19T02:56:35.143Z,10.39
2022-10-19T02:57:35.388Z,10.39
2022-10-19T02:58:35.166Z,10.39
2022-10-19T02:59:35.167Z,10.40
2022-10-19T03:00:35.246Z,10.43
2022-10-19T03:01:35.194Z,10.41
2022-10-19T03:02:35.201Z,10.39
2022-10-19T03:03:35.204Z,10.43
2022-10-19T03:04:35.232Z,10.40
2022-10-19T03:05:35.223Z,10.37
2022-10-19T03:06:35.228Z,10.35
2022-10-19T03:07:35.489Z,10.36
2022-10-19T03:08:35.249Z,10.38
2022-10-19T03:09:35.255Z,10.39
2022-10-19T03:10:35.276Z,10.40
2022-10-19T03:11:35.281Z,10.43
2022-10-19T03:12:35.287Z,10.44
2022-10-19T03:13:35.343Z,10.45
2022-10-19T03:14:35.309Z,10.45
2022-10-19T03:15:35.320Z,10.45
2022-10-19T03:16:35.329Z,10.47
2022-10-19T03:17:35.588Z,10.47
2022-10-19T03:18:35.352Z,10.49
2022-10-19T03:19:35.360Z,10.48
2022-10-19T03:20:35.370Z,10.48
2022-10-19T03:21:35.383Z,10.50
2022-10-19T03:22:35.392Z,10.50
2022-10-19T03:23:35.404Z,10.47
2022-10-19T03:24:35.413Z,10.46
2022-10-19T03:25:35.422Z,10.44
2022-10-19T03:26:35.435Z,10.43
2022-10-19T03:27:35.794Z,10.41
2022-10-19T03:28:35.485Z,10.39
2022-10-19T03:29:35.464Z,10.39
2022-10-19T03:30:35.470Z,10.38
2022-10-19T03:31:35.480Z,10.37
2022-10-19T03:32:35.488Z,10.39
2022-10-19T03:33:35.496Z,10.40
2022-10-19T03:34:35.499Z,10.37
2022-10-19T03:35:35.511Z,10.37
2022-10-19T03:36:35.523Z,10.35
2022-10-19T03:37:35.929Z,10.34
2022-10-19T03:38:35.537Z,10.34
2022-10-19T03:39:35.545Z,10.32
2022-10-19T03:40:35.552Z,10.34
2022-10-19T03:41:35.567Z,10.32
2022-10-19T03:42:35.569Z,10.33
2022-10-19T03:43:35.584Z,10.34
2022-10-19T03:44:35.592Z,10.32
2022-10-19T03:45:35.599Z,10.33
2022-10-19T03:46:35.623Z,10.32
2022-10-19T03:47:35.842Z,10.33
2022-10-19T03:48:35.638Z,10.33
2022-10-19T03:49:36.813Z,10.33
2022-10-19T03:50:35.651Z,10.33
2022-10-19T03:51:35.655Z,10.31
2022-10-19T03:52:35.667Z,10.31
2022-10-19T03:53:35.674Z,10.32
2022-10-19T03:54:35.685Z,10.31
2022-10-19T03:55:35.696Z,10.31
2022-10-19T03:56:35.705Z,10.32
2022-10-19T03:57:36.141Z,10.34
2022-10-19T03:58:35.726Z,10.36
2022-10-19T03:59:35.735Z,10.40
2022-10-19T04:00:35.744Z,10.39
2022-10-19T04:01:35.757Z,10.39
2022-10-19T04:02:35.768Z,10.38
2022-10-19T04:04:35.788Z,10.39
2022-10-19T04:05:35.800Z,10.39
2022-10-19T04:06:35.814Z,10.39
2022-10-19T04:07:36.110Z,10.37
2022-10-19T04:08:35.826Z,10.31
2022-10-19T04:09:35.837Z,10.28
2022-10-19T04:10:35.852Z,10.29
2022-10-19T04:11:35.856Z,10.28
2022-10-19T04:12:35.865Z,10.24
2022-10-19T04:13:35.877Z,10.26
2022-10-19T04:14:45.697Z,10.29
2022-10-19T04:15:35.899Z,10.29
2022-10-19T04:16:35.914Z,10.31
2022-10-19T04:17:36.177Z,10.32
2022-10-19T04:18:35.935Z,10.38
2022-10-19T04:19:35.963Z,10.37
2022-10-19T04:20:35.963Z,10.36
2022-10-19T04:21:35.966Z,10.37
2022-10-19T04:22:35.975Z,10.37
2022-10-19T04:23:35.994Z,10.37
2022-10-19T04:24:35.995Z,10.38
2022-10-19T04:25:36.007Z,10.38
2022-10-19T04:26:36.018Z,10.39
2022-10-19T04:27:36.357Z,10.43
2022-10-19T04:28:36.055Z,10.43
2022-10-19T04:29:36.043Z,10.42
2022-10-19T04:30:36.051Z,10.45
2022-10-19T04:31:36.064Z,10.43
2022-10-19T04:32:36.068Z,10.42
2022-10-19T04:33:36.137Z,10.42
2022-10-19T04:34:37.676Z,10.40
2022-10-19T04:35:36.102Z,10.37
2022-10-19T04:36:36.114Z,10.39
2022-10-19T04:37:36.422Z,10.39
2022-10-19T04:38:36.130Z,10.37
2022-10-19T04:39:36.135Z,10.37
2022-10-19T04:40:36.143Z,10.38
2022-10-19T04:41:36.153Z,10.38
2022-10-19T04:42:36.165Z,10.37
2022-10-19T04:43:36.170Z,10.39
2022-10-19T04:44:36.179Z,10.42
2022-10-19T04:45:36.187Z,10.44
2022-10-19T04:46:36.193Z,10.47
2022-10-19T04:47:36.531Z,10.53
2022-10-19T04:48:36.212Z,10.55
2022-10-19T04:49:36.225Z,10.56
2022-10-19T04:50:36.228Z,10.55
2022-10-19T04:51:36.240Z,10.54
2022-10-19T04:52:36.250Z,10.54
2022-10-19T04:53:36.253Z,10.54
2022-10-19T04:54:36.265Z,10.52
2022-10-19T04:55:36.278Z,10.54
2022-10-19T04:56:36.284Z,10.55
2022-10-19T04:57:36.639Z,10.56
2022-10-19T04:58:36.300Z,10.58
2022-10-19T04:59:36.306Z,10.56
2022-10-19T05:00:36.370Z,10.58
2022-10-19T05:01:36.323Z,10.58
2022-10-19T05:02:36.330Z,10.60
2022-10-19T05:03:36.342Z,10.59
2022-10-19T05:04:36.352Z,10.58
2022-10-19T05:05:36.357Z,10.57
2022-10-19T05:06:36.368Z,10.57
2022-10-19T05:07:36.631Z,10.58
2022-10-19T05:08:36.392Z,10.60
2022-10-19T05:09:36.395Z,10.62
2022-10-19T05:10:36.408Z,10.64
2022-10-19T05:11:36.417Z,10.64
2022-10-19T05:12:36.430Z,10.63
2022-10-19T05:13:36.444Z,10.63
2022-10-19T05:14:37.838Z,10.62
2022-10-19T05:15:36.466Z,10.62
2022-10-19T05:16:36.477Z,10.61
2022-10-19T05:17:36.891Z,10.59
2022-10-19T05:18:36.500Z,10.57
2022-10-19T05:19:36.510Z,10.58
2022-10-19T05:20:36.530Z,10.58
2022-10-19T05:21:36.535Z,10.55
2022-10-19T05:22:36.546Z,10.51
2022-10-19T05:23:36.560Z,10.48
2022-10-19T05:24:36.571Z,10.43
2022-10-19T05:25:36.577Z,10.41
2022-10-19T05:26:36.587Z,10.39
2022-10-19T05:27:36.961Z,10.37
2022-10-19T05:28:36.686Z,10.38
2022-10-19T05:29:36.620Z,10.39
2022-10-19T05:30:36.622Z,10.40
2022-10-19T05:31:36.637Z,10.40
2022-10-19T05:32:36.644Z,10.42
2022-10-19T05:33:36.653Z,10.42
2022-10-19T05:34:36.659Z,10.37
2022-10-19T05:35:36.674Z,10.33
2022-10-19T05:36:36.684Z,10.33
2022-10-19T05:37:36.951Z,10.30
2022-10-19T05:38:36.702Z,10.32
2022-10-19T05:39:36.708Z,10.32
2022-10-19T05:40:36.718Z,10.36
2022-10-19T05:41:36.729Z,10.38
2022-10-19T05:42:36.739Z,10.40
2022-10-19T05:43:36.742Z,10.39
2022-10-19T05:45:36.765Z,10.38
2022-10-19T05:46:36.777Z,10.39
2022-10-19T05:47:37.193Z,10.37
2022-10-19T05:48:36.802Z,10.41
2022-10-19T05:49:36.814Z,10.39
2022-10-19T05:50:36.825Z,10.39
2022-10-19T05:51:36.837Z,10.41
2022-10-19T05:52:36.854Z,10.38
2022-10-19T05:54:36.863Z,10.42
2022-10-19T05:55:36.877Z,10.42
2022-10-19T05:56:36.887Z,10.44
2022-10-19T05:57:37.256Z,10.49
2022-10-19T05:58:36.915Z,10.51
2022-10-19T05:59:36.926Z,10.54
2022-10-19T06:00:36.935Z,10.55
2022-10-19T06:01:36.985Z,10.55
2022-10-19T06:02:36.954Z,10.54
2022-10-19T06:03:36.968Z,10.54
2022-10-19T06:04:36.979Z,10.54
2022-10-19T06:05:36.990Z,10.51
2022-10-19T06:06:36.995Z,10.52
2022-10-19T06:07:37.179Z,10.48
2022-10-19T06:08:37.017Z,10.44
2022-10-19T06:09:37.031Z,10.45
2022-10-19T06:10:37.036Z,10.45
2022-10-19T06:11:37.043Z,10.43
2022-10-19T06:12:37.055Z,10.36
2022-10-19T06:13:37.058Z,10.32
2022-10-19T06:14:37.093Z,10.28
2022-10-19T06:15:37.080Z,10.20
2022-10-19T06:16:37.092Z,10.16
2022-10-19T06:17:37.180Z,10.13
2022-10-19T06:18:37.118Z,10.10
2022-10-19T06:19:37.122Z,10.09
2022-10-19T06:20:37.137Z,10.08
2022-10-19T06:21:38.641Z,10.08
2022-10-19T06:22:37.155Z,10.11
2022-10-19T06:23:37.215Z,10.11
2022-10-19T06:24:37.170Z,10.12
2022-10-19T06:25:37.179Z,10.09
2022-10-19T06:26:37.185Z,10.06
2022-10-19T06:27:37.588Z,10.03
2022-10-19T06:28:37.211Z,9.95
2022-10-19T06:29:37.223Z,9.87
2022-10-19T06:30:37.298Z,9.82
2022-10-19T06:31:37.243Z,9.73
2022-10-19T06:32:37.252Z,9.67
2022-10-19T06:33:37.319Z,9.61
2022-10-19T06:34:37.282Z,9.57
2022-10-19T06:35:37.289Z,9.53
2022-10-19T06:36:37.302Z,9.51
2022-10-19T06:37:37.309Z,9.48
2022-10-19T06:38:37.320Z,9.48
2022-10-19T06:39:37.332Z,9.46
2022-10-19T06:40:37.343Z,9.46
2022-10-19T06:41:37.354Z,9.45
2022-10-19T06:42:37.366Z,9.43
2022-10-19T06:43:37.372Z,9.43
2022-10-19T06:44:37.385Z,9.40
2022-10-19T06:45:37.397Z,9.40
2022-10-19T06:46:37.411Z,9.39
2022-10-19T06:47:37.870Z,9.39
2022-10-19T06:48:37.436Z,9.40
2022-10-19T06:49:37.454Z,9.39
2022-10-19T06:50:37.463Z,9.40
2022-10-19T06:51:37.470Z,9.40
2022-10-19T06:52:37.475Z,9.39
2022-10-19T06:53:37.488Z,9.40
2022-10-19T06:54:37.500Z,9.44
2022-10-19T06:55:37.506Z,9.45
2022-10-19T06:56:37.573Z,9.43
2022-10-19T06:57:37.744Z,9.46
2022-10-19T06:58:37.544Z,9.48
2022-10-19T06:59:37.549Z,9.48
2022-10-19T07:00:37.627Z,9.47
2022-10-19T07:01:37.584Z,9.47
2022-10-19T07:02:37.588Z,9.48
2022-10-19T07:03:37.596Z,9.48
2022-10-19T07:04:37.607Z,9.48
2022-10-19T07:05:37.624Z,9.49
2022-10-19T07:06:37.630Z,9.49
2022-10-19T07:07:38.018Z,9.52
2022-10-19T07:08:37.654Z,9.53
2022-10-19T07:09:37.663Z,9.53
2022-10-19T07:10:37.669Z,9.56
2022-10-19T07:11:38.323Z,9.57
2022-10-19T07:12:37.686Z,9.60
2022-10-19T07:13:37.696Z,9.62
2022-10-19T07:14:37.733Z,9.66
2022-10-19T07:15:37.711Z,9.69
2022-10-19T07:16:37.719Z,9.68
2022-10-19T07:17:37.730Z,9.71
2022-10-19T07:18:37.739Z,9.73
2022-10-19T07:19:37.747Z,9.74
2022-10-19T07:20:37.761Z,9.76
2022-10-19T07:21:37.768Z,9.77
2022-10-19T07:22:37.775Z,9.78
2022-10-19T07:23:37.785Z,9.82
2022-10-19T07:24:37.789Z,9.84
2022-10-19T07:25:37.791Z,9.86
2022-10-19T07:26:37.799Z,9.85
2022-10-19T07:27:37.961Z,9.86
2022-10-19T07:28:37.818Z,9.87
2022-10-19T07:29:37.829Z,9.89
2022-10-19T07:30:37.833Z,9.89
2022-10-19T07:31:37.838Z,9.89
2022-10-19T07:32:37.844Z,9.88
2022-10-19T07:33:37.847Z,9.91
2022-10-19T07:34:37.858Z,9.92
2022-10-19T07:35:37.863Z,9.90
2022-10-19T07:36:37.875Z,9.93
2022-10-19T07:37:37.886Z,9.94
2022-10-19T07:38:37.888Z,9.93
2022-10-19T07:39:37.896Z,9.91
2022-10-19T07:40:37.904Z,9.90
2022-10-19T07:41:37.913Z,9.90
2022-10-19T07:42:37.927Z,9.92
2022-10-19T07:43:37.937Z,9.93
2022-10-19T07:44:37.940Z,9.95
2022-10-19T07:45:37.950Z,9.98
2022-10-19T07:46:37.955Z,9.97
2022-10-19T07:47:37.964Z,9.94
2022-10-19T07:48:37.976Z,10.00
2022-10-19T07:49:37.986Z,10.03
2022-10-19T07:50:37.999Z,10.05
2022-10-19T07:51:38.015Z,10.07
2022-10-19T07:52:38.315Z,10.08
2022-10-19T07:53:38.034Z,10.11
2022-10-19T07:54:38.045Z,10.13
2022-10-19T07:55:38.056Z,10.16
2022-10-19T07:56:38.070Z,10.17
2022-10-19T07:57:38.079Z,10.19
2022-10-19T07:58:38.085Z,10.21
2022-10-19T07:59:38.104Z,10.25
2022-10-19T08:01:38.175Z,10.27
2022-10-19T08:02:45.599Z,10.31
2022-10-19T08:05:38.164Z,10.36
2022-10-19T08:06:38.171Z,10.36
2022-10-19T08:07:38.179Z,10.36
2022-10-19T08:08:38.240Z,10.36
2022-10-19T08:09:52.516Z,10.37
2022-10-19T08:10:38.215Z,10.37
2022-10-19T08:11:38.219Z,10.38
2022-10-19T08:12:38.227Z,10.40
2022-10-19T08:13:38.240Z,10.45
2022-10-19T08:14:38.253Z,10.48
2022-10-19T08:15:38.260Z,10.52
2022-10-19T08:16:38.271Z,10.56
2022-10-19T08:17:38.281Z,10.63
2022-10-19T08:18:38.290Z,10.68
2022-10-19T08:19:38.292Z,10.72
2022-10-19T08:20:38.303Z,10.77
2022-10-19T08:21:38.319Z,10.84
2022-10-19T08:22:38.324Z,10.94
2022-10-19T08:23:38.330Z,11.05
2022-10-19T08:24:38.335Z,11.18
2022-10-19T08:25:38.344Z,11.30
2022-10-19T08:26:38.355Z,11.42
2022-10-19T08:27:38.362Z,11.53
2022-10-19T08:28:38.365Z,11.60
2022-10-19T08:29:38.379Z,11.67
2022-10-19T08:30:38.389Z,11.78
2022-10-19T08:31:38.391Z,11.88
2022-10-19T08:32:38.404Z,12.00
2022-10-19T08:33:38.414Z,12.07
2022-10-19T08:34:38.418Z,12.18
2022-10-19T08:35:38.433Z,12.24
2022-10-19T08:36:38.459Z,12.32
2022-10-19T08:37:44.941Z,12.36
2022-10-19T08:38:38.466Z,12.40
2022-10-19T08:39:38.480Z,12.42
2022-10-19T08:40:38.491Z,12.46
2022-10-19T08:41:38.580Z,12.51
2022-10-19T08:42:38.510Z,12.59
2022-10-19T08:43:38.522Z,12.66
2022-10-19T08:44:38.540Z,12.72
2022-10-19T08:45:38.612Z,12.76
2022-10-19T08:46:38.553Z,12.81
2022-10-19T08:47:38.713Z,12.85
2022-10-19T08:48:38.572Z,12.88
2022-10-19T08:49:38.577Z,12.86
2022-10-19T08:50:38.582Z,12.89
2022-10-19T08:51:38.589Z,12.88
2022-10-19T08:52:38.602Z,12.88
2022-10-19T08:53:38.609Z,12.88
2022-10-19T08:54:38.657Z,12.91
2022-10-19T08:55:38.627Z,12.90
2022-10-19T08:56:50.295Z,12.90
2022-10-19T08:57:38.648Z,12.94
2022-10-19T08:58:38.651Z,12.98
2022-10-19T08:59:38.661Z,12.98
2022-10-19T09:01:38.687Z,13.00
2022-10-19T09:02:38.690Z,13.00
2022-10-19T09:04:38.717Z,12.99
2022-10-19T09:05:38.735Z,13.05
2022-10-19T09:06:38.739Z,13.08
2022-10-19T09:07:38.751Z,13.11
2022-10-19T09:08:38.814Z,13.15
2022-10-19T09:09:38.812Z,13.18
2022-10-19T09:10:38.792Z,13.25
2022-10-19T09:11:38.801Z,13.32
2022-10-19T09:12:38.816Z,13.37
2022-10-19T09:13:41.543Z,13.40
2022-10-19T09:14:38.841Z,13.43
2022-10-19T09:15:38.851Z,13.45
2022-10-19T09:16:38.856Z,13.45
2022-10-19T09:17:38.866Z,13.46
2022-10-19T09:18:38.981Z,13.44
2022-10-19T09:19:38.894Z,13.42
2022-10-19T09:20:38.903Z,13.47
2022-10-19T09:21:44.534Z,13.46
2022-10-19T09:22:38.919Z,13.40
2022-10-19T09:23:38.932Z,13.38
2022-10-19T09:24:38.941Z,13.31
2022-10-19T09:25:38.951Z,13.25
2022-10-19T09:26:38.970Z,13.13
2022-10-19T09:27:38.977Z,13.05
2022-10-19T09:28:39.846Z,12.95
2022-10-19T09:29:39.003Z,12.81
2022-10-19T09:30:39.018Z,12.66
2022-10-19T09:31:40.582Z,12.47
2022-10-19T09:32:39.193Z,12.33
2022-10-19T09:33:39.058Z,12.24
2022-10-19T09:34:39.068Z,12.12
2022-10-19T09:35:39.078Z,12.04
2022-10-19T09:36:50.314Z,12.00
2022-10-19T09:37:39.103Z,11.93
2022-10-19T09:38:39.116Z,11.89
2022-10-19T09:39:39.969Z,11.83
2022-10-19T09:40:40.871Z,11.80
2022-10-19T09:41:39.149Z,11.75
2022-10-19T09:42:42.790Z,11.71
2022-10-19T09:43:39.169Z,11.67
2022-10-19T09:44:39.180Z,11.63
2022-10-19T09:45:39.187Z,11.64
2022-10-19T09:46:42.971Z,11.60
2022-10-19T09:47:39.283Z,11.58
2022-10-19T09:48:39.240Z,11.56
2022-10-19T09:49:39.251Z,11.58
2022-10-19T09:50:39.255Z,11.56
2022-10-19T09:51:39.266Z,11.55
2022-10-19T09:52:39.270Z,11.57
2022-10-19T09:53:39.281Z,11.57
2022-10-19T09:54:39.293Z,11.57
2022-10-19T09:55:39.369Z,11.53
2022-10-19T09:56:39.314Z,11.54
2022-10-19T09:57:39.329Z,11.52
2022-10-19T09:58:39.342Z,11.54
2022-10-19T09:59:39.356Z,11.58
2022-10-19T10:00:39.356Z,11.57
2022-10-19T10:01:42.954Z,11.59
2022-10-19T10:02:39.511Z,11.64
2022-10-19T10:03:39.405Z,11.65
2022-10-19T10:04:39.407Z,11.69
2022-10-19T10:05:39.413Z,11.76
2022-10-19T10:06:39.415Z,11.79
2022-10-19T10:07:39.434Z,11.90
2022-10-19T10:08:39.532Z,11.99
2022-10-19T10:09:39.463Z,12.04
2022-10-19T10:10:39.476Z,12.10
2022-10-19T10:11:39.489Z,12.20
2022-10-19T10:12:39.500Z,12.26
2022-10-19T10:13:39.515Z,12.32
2022-10-19T10:14:39.529Z,12.40
2022-10-19T10:15:39.544Z,12.46
2022-10-19T10:16:39.543Z,12.52
2022-10-19T10:17:39.563Z,12.63
2022-10-19T10:18:39.579Z,12.74
2022-10-19T10:19:39.585Z,12.83
2022-10-19T10:20:39.594Z,12.94
2022-10-19T10:21:39.609Z,13.03
2022-10-19T10:22:39.628Z,13.16
2022-10-19T10:23:39.655Z,13.30
2022-10-19T10:24:39.658Z,13.44
2022-10-19T10:25:39.673Z,13.55
2022-10-19T10:26:39.711Z,13.66
2022-10-19T10:27:39.704Z,13.71
2022-10-19T10:28:39.708Z,13.80
2022-10-19T10:29:39.717Z,13.84
2022-10-19T10:30:39.727Z,13.85
2022-10-19T10:31:39.738Z,13.87
2022-10-19T10:32:41.372Z,13.88
2022-10-19T10:33:44.881Z,13.84
2022-10-19T10:34:51.139Z,13.79
2022-10-19T10:35:39.763Z,13.76
2022-10-19T10:36:39.778Z,13.76
2022-10-19T10:37:39.782Z,13.78
2022-10-19T10:38:39.798Z,13.80
2022-10-19T10:39:39.849Z,13.82
2022-10-19T10:40:39.819Z,13.93
2022-10-19T10:41:39.831Z,14.03
2022-10-19T10:42:39.850Z,14.04
2022-10-19T10:43:39.889Z,14.12
2022-10-19T10:44:39.873Z,14.19
2022-10-19T10:45:39.888Z,14.23
2022-10-19T10:46:39.902Z,14.13
2022-10-19T10:47:39.911Z,14.01
2022-10-19T10:48:39.926Z,13.98
2022-10-19T10:49:39.940Z,13.99
2022-10-19T10:50:39.938Z,14.01
2022-10-19T10:51:39.956Z,14.06
2022-10-19T10:52:39.967Z,14.14
2022-10-19T10:53:39.979Z,14.24
2022-10-19T10:54:39.995Z,14.34
2022-10-19T10:55:40.003Z,14.46
2022-10-19T10:56:40.018Z,14.55
2022-10-19T10:57:40.034Z,14.60
2022-10-19T10:58:40.041Z,14.64
2022-10-19T10:59:41.629Z,14.66
2022-10-19T11:00:40.073Z,14.66
2022-10-19T11:01:40.145Z,14.58
2022-10-19T11:02:40.082Z,14.45
2022-10-19T11:03:40.089Z,14.38
2022-10-19T11:04:40.103Z,14.28
2022-10-19T11:05:40.110Z,14.20
2022-10-19T11:06:42.248Z,14.13
2022-10-19T11:07:40.134Z,14.05
2022-10-19T11:08:40.186Z,13.97
2022-10-19T11:09:40.155Z,13.88
2022-10-19T11:10:40.167Z,13.84
2022-10-19T11:11:40.185Z,13.77
2022-10-19T11:12:40.201Z,13.72
2022-10-19T11:13:40.205Z,13.69
2022-10-19T11:14:40.220Z,13.60
2022-10-19T11:15:40.229Z,13.50
2022-10-19T11:16:40.234Z,13.40
2022-10-19T11:17:40.239Z,13.35
2022-10-19T11:18:40.254Z,13.20
2022-10-19T11:19:40.262Z,13.10
2022-10-19T11:20:40.261Z,12.95
2022-10-19T11:21:40.408Z,12.87
2022-10-19T11:22:40.406Z,12.78
2022-10-19T11:23:40.300Z,12.74
2022-10-19T11:24:41.157Z,12.68
2022-10-19T11:25:40.314Z,12.68
2022-10-19T11:26:40.330Z,12.65
2022-10-19T11:27:40.339Z,12.65
2022-10-19T11:28:40.345Z,12.64
2022-10-19T11:29:40.358Z,12.66
2022-10-19T11:30:42.409Z,12.74
2022-10-19T11:31:40.371Z,12.76
2022-10-19T11:32:40.386Z,12.82
2022-10-19T11:33:40.457Z,12.87
2022-10-19T11:34:40.405Z,12.95
2022-10-19T11:35:40.419Z,13.01
2022-10-19T11:36:40.428Z,13.09
2022-10-19T11:37:45.566Z,13.20
2022-10-19T11:38:40.456Z,13.26
2022-10-19T11:39:40.466Z,13.30
2022-10-19T11:40:54.099Z,13.34
2022-10-19T11:41:40.480Z,13.37
2022-10-19T11:42:40.535Z,13.38
2022-10-19T11:43:40.503Z,13.41
2022-10-19T11:44:40.518Z,13.41
2022-10-19T11:45:40.530Z,13.40
2022-10-19T11:46:40.532Z,13.39
2022-10-19T11:47:40.539Z,13.35
2022-10-19T11:48:42.989Z,13.33
2022-10-19T11:49:40.566Z,13.28
2022-10-19T11:50:41.093Z,13.25
2022-10-19T11:51:40.588Z,13.15
2022-10-19T11:52:40.596Z,13.11
2022-10-19T11:53:40.605Z,13.00
2022-10-19T11:54:40.610Z,12.90
2022-10-19T11:55:40.622Z,12.82
2022-10-19T11:56:58.467Z,12.78
2022-10-19T11:57:40.635Z,12.73
2022-10-19T11:58:40.655Z,12.70
2022-10-19T11:59:40.664Z,12.65
2022-10-19T12:00:40.781Z,12.64
2022-10-19T12:01:40.712Z,12.63
2022-10-19T12:02:40.698Z,12.59
2022-10-19T12:03:40.708Z,12.54
2022-10-19T12:04:40.725Z,12.52
2022-10-19T12:05:40.745Z,12.50
2022-10-19T12:06:40.750Z,12.46
2022-10-19T12:07:40.747Z,12.44
2022-10-19T12:08:40.862Z,12.38
2022-10-19T12:09:40.774Z,12.37
2022-10-19T12:10:40.786Z,12.34
2022-10-19T12:11:40.801Z,12.32
2022-10-19T12:12:40.814Z,12.26
2022-10-19T12:13:40.822Z,12.25
2022-10-19T12:14:40.844Z,12.23
2022-10-19T12:15:40.853Z,12.20
2022-10-19T12:16:40.867Z,12.17
2022-10-19T12:17:40.877Z,12.15
2022-10-19T12:18:40.891Z,12.12
2022-10-19T12:19:40.899Z,12.09
2022-10-19T12:20:40.906Z,12.07
2022-10-19T12:21:40.917Z,12.06
2022-10-19T12:22:40.920Z,12.06
2022-10-19T12:23:40.926Z,12.06
2022-10-19T12:24:40.942Z,12.07
2022-10-19T12:25:40.947Z,12.08
2022-10-19T12:26:40.960Z,12.08
2022-10-19T12:27:40.965Z,12.11
2022-10-19T12:28:40.981Z,12.11
2022-10-19T12:29:40.996Z,12.16
2022-10-19T12:30:41.013Z,12.17
2022-10-19T12:31:41.030Z,12.20
2022-10-19T12:32:41.035Z,12.27
2022-10-19T12:33:41.074Z,12.32
2022-10-19T12:34:41.066Z,12.38
2022-10-19T12:35:41.082Z,12.43
2022-10-19T12:36:41.089Z,12.47
2022-10-19T12:37:41.091Z,12.50
2022-10-19T12:38:42.350Z,12.52
2022-10-19T12:39:41.109Z,12.53
2022-10-19T12:40:41.123Z,12.57
2022-10-19T12:41:41.136Z,12.57
2022-10-19T12:42:41.143Z,12.60
2022-10-19T12:43:41.153Z,12.60
2022-10-19T12:44:41.157Z,12.59
2022-10-19T12:45:41.161Z,12.57
2022-10-19T12:46:41.169Z,12.56
2022-10-19T12:47:41.177Z,12.55
2022-10-19T12:48:41.186Z,12.51
2022-10-19T12:49:41.194Z,12.46
2022-10-19T12:50:41.212Z,12.45
2022-10-19T12:51:41.218Z,12.46
2022-10-19T12:52:41.234Z,12.48
2022-10-19T12:53:41.246Z,12.44
2022-10-19T12:54:41.261Z,12.43
2022-10-19T12:55:42.353Z,12.41
2022-10-19T12:56:41.287Z,12.40
2022-10-19T12:57:41.300Z,12.39
2022-10-19T12:58:43.650Z,12.43
2022-10-19T12:59:41.323Z,12.36
2022-10-19T13:00:41.342Z,12.38
2022-10-19T13:01:41.344Z,12.35
2022-10-19T13:02:41.359Z,12.33
2022-10-19T13:03:41.362Z,12.32
2022-10-19T13:04:41.369Z,12.30
2022-10-19T13:05:41.379Z,12.27
2022-10-19T13:06:41.394Z,12.25
2022-10-19T13:07:41.404Z,12.19
2022-10-19T13:08:41.433Z,12.16
2022-10-19T13:09:41.422Z,12.15
2022-10-19T13:10:41.430Z,12.10
2022-10-19T13:11:41.444Z,12.10
2022-10-19T13:12:41.459Z,12.07
2022-10-19T13:13:41.470Z,12.08
2022-10-19T13:14:41.475Z,12.02
2022-10-19T13:15:41.486Z,11.99
2022-10-19T13:16:41.502Z,11.99
2022-10-19T13:17:41.508Z,11.95
2022-10-19T13:18:41.525Z,11.93
2022-10-19T13:19:41.535Z,11.91
2022-10-19T13:20:41.553Z,11.93
2022-10-19T13:21:41.563Z,11.96
2022-10-19T13:22:41.574Z,11.96
2022-10-19T13:23:41.586Z,11.98
2022-10-19T13:25:41.608Z,12.11
2022-10-19T13:26:41.625Z,12.14
2022-10-19T13:27:41.642Z,12.19
2022-10-19T13:28:41.650Z,12.23
2022-10-19T13:29:41.698Z,12.24
2022-10-19T13:30:41.692Z,12.26
2022-10-19T13:31:41.703Z,12.25
2022-10-19T13:32:41.717Z,12.25
2022-10-19T13:33:41.736Z,12.23
2022-10-19T13:34:41.748Z,12.21
2022-10-19T13:35:41.769Z,12.17
2022-10-19T13:36:41.788Z,12.14
2022-10-19T13:37:41.793Z,12.14
2022-10-19T13:38:41.817Z,12.10
2022-10-19T13:39:41.818Z,12.08